Axtell, Nebraska
Current Conditions -  °F | °C
As of 8:15 AM on Thursday 18 Dec 2014 (Local Time) from KHDE Reporting Station
Overcast Overcast  
Wind Chill: 25°   Ceiling: 600
Heat Index: 25°   Visibility: 7mi
Dew Point: 23°   Wind: 3mph
Humidity: 93%   Direction: 170°S
Pressure: 30.14"   Gusts: NA
Location:  40.48°N, 99.13°W
Report Text: KHDE 181415Z AUTO 17003KT 7SM OVC006 M04/M05 A3014 RMK AO2 T10411051
Loading
Personal Weather Stations






























Interactive Weather Map New forecast layout! Learn more

10-Day Weather Forecast

Advertisements
Track Severe Weather on mobile